Airfield :
LOGIN :

Register | Disclaimer

   EN    FR    IT 

 










Legend :    VFR   Marginal VFR   IFR   Intensive IFR   Very Intensive IFR
Visi :
Ceiling :
>= 8 km
>= 3000ft
5 to 8 km
1000 to 3000 ft
1500m to 5 km
500 to 1000 ft
800 to 1500m
200 to 500 ft
< 800m
< 200 ft
Symbols :   Thunderstorms  Fog  Heavy snow  Heavy precipitations  Wind > 20 kt
SIGMETs :     Misc.  Thunderstorms  Icing  Turbulence  Mountain Waves  Volcanic Ashes






- Airport Elevation : 11 ft
- IATA code : MJV


LELC - Murcia San Javier

CURRENT METAR :
  • 210800Z 22006KT CAVOK 21/16 Q1011 NOSIG

EXPIRED METARs :
  • 210730Z 22005KT CAVOK 17/16 Q1011 NOSIG
  • 210700Z 31001KT CAVOK 17/16 Q1011 NOSIG
  • 210630Z 33004KT CAVOK 17/16 Q1010 NOSIG
  • 210600Z 33003KT 260V360 CAVOK 17/17 Q1010 NOSIG
  • 210530Z VRB01KT CAVOK 17/17 Q1009 NOSIG
  • 210500Z VRB02KT CAVOK 17/17 Q1009 NOSIG

TAF TAF LELC
Valid from the 21 at 06:00 until the 22 at 06:00 UTC


210500Z 2106/2206 28003KT 9999 FEW020 TX26/2114Z TN16/2106Z
BECMG 2108/2110 20013KT
PROB30
TEMPO 2112/2116 20015G25KT
BECMG 2116/2118 VRB03KT



MET'MAP, your aeronautical weather chart ! - Copyright ORBIFLY December 2007 - Disclaimer

ORBIFLY MET'MAP TEAM :

Programming & Development : Alexandra Zaïnal
Concept & original design : Baudouin d'Aumeries
Assistance for programming : Marc-Olivier Méhu
Technical & hardware support : Manuel Goepfert

Contact : metmap@orbifly.com




SOURCES & CREDITS :

   NOAA